地図

経路データ

SID SEASON NUMBER BASIN SUBBASIN NAME ISO_TIME NATURE LAT LON WMO_WIND WMO_PRES WMO_AGENCY TRACK_TYPE DIST2LAND LANDFALL IFLAG USA_AGENCY USA_ATCF_ID USA_LAT USA_LON USA_RECORD USA_STATUS USA_WIND USA_PRES USA_SSHS USA_R34_NE USA_R34_SE USA_R34_SW USA_R34_NW USA_R50_NE USA_R50_SE USA_R50_SW USA_R50_NW USA_R64_NE USA_R64_SE USA_R64_SW USA_R64_NW USA_POCI USA_ROCI USA_RMW USA_EYE TOKYO_LAT TOKYO_LON TOKYO_GRADE TOKYO_WIND TOKYO_PRES TOKYO_R50_DIR TOKYO_R50_LONG TOKYO_R50_SHORT TOKYO_R30_DIR TOKYO_R30_LONG TOKYO_R30_SHORT TOKYO_LAND CMA_LAT CMA_LON CMA_CAT CMA_WIND CMA_PRES HKO_LAT HKO_LON HKO_CAT HKO_WIND HKO_PRES NEWDELHI_LAT NEWDELHI_LON NEWDELHI_GRADE NEWDELHI_WIND NEWDELHI_PRES NEWDELHI_CI NEWDELHI_DP NEWDELHI_POCI REUNION_LAT REUNION_LON REUNION_TYPE REUNION_WIND REUNION_PRES REUNION_TNUM REUNION_CI REUNION_RMW REUNION_R34_NE REUNION_R34_SE REUNION_R34_SW REUNION_R34_NW REUNION_R50_NE REUNION_R50_SE REUNION_R50_SW REUNION_R50_NW REUNION_R64_NE REUNION_R64_SE REUNION_R64_SW REUNION_R64_NW BOM_LAT BOM_LON BOM_TYPE BOM_WIND BOM_PRES BOM_TNUM BOM_CI BOM_RMW BOM_R34_NE BOM_R34_SE BOM_R34_SW BOM_R34_NW BOM_R50_NE BOM_R50_SE BOM_R50_SW BOM_R50_NW BOM_R64_NE BOM_R64_SE BOM_R64_SW BOM_R64_NW BOM_ROCI BOM_POCI BOM_EYE BOM_POS_METHOD BOM_PRES_METHOD NADI_LAT NADI_LON NADI_CAT NADI_WIND NADI_PRES WELLINGTON_LAT WELLINGTON_LON WELLINGTON_WIND WELLINGTON_PRES DS824_LAT DS824_LON DS824_STAGE DS824_WIND DS824_PRES TD9636_LAT TD9636_LON TD9636_STAGE TD9636_WIND TD9636_PRES TD9635_LAT TD9635_LON TD9635_WIND TD9635_PRES TD9635_ROCI NEUMANN_LAT NEUMANN_LON NEUMANN_CLASS NEUMANN_WIND NEUMANN_PRES MLC_LAT MLC_LON MLC_CLASS MLC_WIND MLC_PRES USA_GUST BOM_GUST BOM_GUST_PER REUNION_GUST REUNION_GUST_PER USA_SEAHGT USA_SEARAD_NE USA_SEARAD_SE USA_SEARAD_SW USA_SEARAD_NW STORM_SPEED STORM_DIR
1989221N10149 1989 75 WP MM NANCY 1989-08-09 00:00:00 NR 10.1000 148.900 main 1377 1377 O_________O___ jtwc_wp WP171989 10.1000 148.900 15 -1 10.1000 148.900 1 15 19 8
1989221N10149 1989 75 WP MM NANCY 1989-08-09 03:00:00 NR 11.0364 149.031 main 1478 1478 P_________P___ WP171989 11.0726 149.060 17 -1 11.0001 149.002 1 16 19 8
1989221N10149 1989 75 WP MM NANCY 1989-08-09 06:00:00 NR 11.9501 149.162 main 1592 1592 O_________P___ jtwc_wp WP171989 12.0000 149.200 20 -1 11.9002 149.123 1 17 18 8
1989221N10149 1989 75 WP MM NANCY 1989-08-09 09:00:00 NR 12.8288 149.302 main 1682 1682 P_________P___ WP171989 12.8574 149.320 20 -1 12.8002 149.283 1 18 18 11
1989221N10149 1989 75 WP MM NANCY 1989-08-09 12:00:00 NR 13.7000 149.500 main 1785 1785 O_________O___ jtwc_wp WP171989 13.7000 149.500 20 -1 13.7000 149.500 1 20 19 15
1989221N10149 1989 75 WP MM NANCY 1989-08-09 15:00:00 NR 14.6022 149.804 main 1889 1889 P_________P___ WP171989 14.6075 149.820 20 -1 14.5968 149.788 1 20 19 20
1989221N10149 1989 75 WP MM NANCY 1989-08-09 18:00:00 NR 15.4875 150.166 main 1995 1995 O_________P___ jtwc_wp WP171989 15.5000 150.200 20 -1 15.4749 150.132 1 20 19 22
1989221N10149 1989 75 WP MM NANCY 1989-08-09 21:00:00 NR 16.3227 150.526 main 2089 2089 P_________P___ WP171989 16.3299 150.543 20 -1 16.3156 150.510 1 20 18 24
1989221N10149 1989 75 WP MM NANCY 1989-08-10 00:00:00 NR 17.1000 150.900 main 2184 2184 O_________O___ jtwc_wp WP171989 17.1000 150.900 20 -1 17.1000 150.900 1 20 17 25
1989221N10149 1989 75 WP MM NANCY 1989-08-10 03:00:00 NR 17.8449 151.278 main 2217 2164 P_________P___ WP171989 17.8300 151.300 20 -1 17.8597 151.256 1 21 16 27
1989221N10149 1989 75 WP MM NANCY 1989-08-10 06:00:00 NR 18.5283 151.660 main 2169 2128 O_________P___ jtwc_wp WP171989 18.5000 151.700 20 -1 18.5567 151.620 1 22 15 28
1989221N10149 1989 75 WP MM NANCY 1989-08-10 09:00:00 NR 19.1488 152.021 main 2128 2092 P_________P___ WP171989 19.1223 152.043 22 -1 19.1753 152.000 1 23 14 31
1989221N10149 1989 75 WP MM NANCY 1989-08-10 12:00:00 NR 19.7000 152.400 main 2092 2067 O_________O___ jtwc_wp WP171989 19.7000 152.400 25 -1 19.7000 152.400 1 25 14 35
1989221N10149 1989 75 WP MM NANCY 1989-08-10 15:00:00 NR 20.2561 152.831 main 2058 2047 P_________P___ WP171989 20.3250 152.835 25 -1 20.1873 152.828 1 25 13 40
1989221N10149 1989 75 WP MM NANCY 1989-08-10 18:00:00 NR 20.6873 153.288 main 2050 2044 O_________P___ jtwc_wp WP171989 20.8000 153.300 25 -1 20.5747 153.277 1 25 11 52
1989221N10149 1989 75 WP MM NANCY 1989-08-10 21:00:00 NR 20.9198 153.744 main 2056 2056 P_________P___ WP171989 20.9899 153.750 25 -1 20.8498 153.737 1 25 9 76
1989221N10149 1989 75 WP MM NANCY 1989-08-11 00:00:00 TS 20.8889 154.178 1004 tokyo main 2087 2087 OO________O___ jtwc_wp WP171989 21.0000 154.200 25 -1 20.0000 154.000 2 1004 0 0 0 21.0000 154.200 1 25 8 97
1989221N10149 1989 75 WP MM NANCY 1989-08-11 03:00:00 TS 20.8199 154.572 main 2121 2121 PP________P___ WP171989 20.9874 154.650 25 -1 20.1051 154.242 2 1004 0 0 21.0098 154.660 1 25 7 105
1989221N10149 1989 75 WP MM NANCY 1989-08-11 06:00:00 TS 20.6932 154.947 1004 tokyo main 2149 2149 OOO_______P___ jtwc_wp WP171989 20.9000 155.100 25 -1 20.2000 154.500 2 1004 0 0 0 20.5000 155.000 1 23 1004 20.9047 155.117 1 25 7 110
1989221N10149 1989 75 WP MM NANCY 1989-08-11 09:00:00 TS 20.5806 155.285 main 2184 2184 PPP_______P___ WP171989 20.7649 155.558 25 -1 20.2849 154.785 2 1004 0 0 20.4697 155.175 1 23 1004 20.7473 155.566 1 25 7 105
1989221N10149 1989 75 WP MM NANCY 1989-08-11 12:00:00 TS 20.5000 155.706 1004 tokyo main 2219 2219 OOOO______O___ jtwc_wp WP171989 20.6000 156.000 25 -1 20.4000 155.100 2 1004 0 0 0 20.5000 155.500 1 23 1004 20.1000 156.400 TD 25 1000 20.6000 156.000 1 25 8 97
1989221N10149 1989 75 WP MM NANCY 1989-08-11 15:00:00 TS 20.4836 156.161 main 2252 2252 PPPP______P___ WP171989 20.4124 156.408 27 -1 20.5849 155.435 2 1002 0 0 20.6154 156.062 1 26 1003 20.1251 156.705 TD 27 997 20.5008 156.467 1 26 9 90
1989221N10149 1989 75 WP MM NANCY 1989-08-11 18:00:00 TS 20.5011 156.624 1000 tokyo main 2279 2279 OOOO______P___ jtwc_wp WP171989 20.3000 156.800 30 -1 20.8000 155.800 2 1000 0 0 0 20.7000 156.700 1 29 1002 20.2000 157.000 TD 30 995 20.4304 156.913 1 27 8 86
1989221N10149 1989 75 WP MM NANCY 1989-08-11 21:00:00 TS 20.5355 157.056 main 2313 2305 PPPP______P___ WP171989 20.3326 157.237 30 -1 21.0000 156.200 2 998 0 0 20.5626 157.268 1 29 998 20.3625 157.272 TD 30 995 20.4197 157.302 1 28 7 78
1989221N10149 1989 75 WP MM NANCY 1989-08-12 00:00:00 TS 20.6600 157.400 40 996 tokyo main 2317 2314 OOOO______O___ jtwc_wp WP171989 20.5000 157.600 30 -1 21.2000 156.600 3 40 996 0 9 90 90 0 20.5000 157.700 1 29 995 20.6000 157.500 TD 30 995 20.5000 157.600 1 30 7 55
1989221N10149 1989 75 WP MM NANCY 1989-08-12 03:00:00 TS 20.9121 157.640 main 2314 2304 PPPP______P___ WP171989 20.7699 157.810 32 -1 21.4075 156.987 3 42 994 0 9 120 120 20.8048 157.925 1 33 992 20.8925 157.680 TD 35 992 20.6857 157.796 1 33 7 33
1989221N10149 1989 75 WP MM NANCY 1989-08-12 06:00:00 TS 21.2129 157.780 45 992 tokyo main 2304 2287 OOOO______P___ jtwc_wp WP171989 21.1000 157.900 35 0 21.6000 157.300 3 45 992 0 9 150 150 0 21.2000 158.000 2 38 990 21.2000 157.800 TS 40 990 20.9644 157.899 1 37 6 20
1989221N10149 1989 75 WP MM NANCY 1989-08-12 09:00:00 TS 21.4606 157.854 main 2286 2270 PPPP______P___ WP171989 21.3850 157.930 40 0 21.7499 157.495 3 45 991 0 9 150 150 21.4000 158.045 2 38 990 21.4575 157.873 TS 40 990 21.3109 157.928 1 41 5 9
1989221N10149 1989 75 WP MM NANCY 1989-08-12 12:00:00 TS 21.7200 157.860 45 990 tokyo main 2270 2238 OOOO______O___ jtwc_wp WP171989 21.7000 157.900 45 0 21.9000 157.600 3 45 990 0 9 150 150 0 21.6000 158.000 2 38 990 21.7000 157.900 TS 40 990 21.7000 157.900 2 45 5 0
1989221N10149 1989 75 WP MM NANCY 1989-08-12 15:00:00 TS 22.0004 157.843 main 2238 2214 PPPP______P___ WP171989 22.0775 157.872 47 0 22.0475 157.680 3 45 990 0 9 150 150 21.9126 157.850 2 38 990 21.9125 157.930 TS 40 990 22.0520 157.881 2 47 6 353
1989221N10149 1989 75 WP MM NANCY 1989-08-12 18:00:00 TS 22.3488 157.782 45 990 tokyo main 2214 2175 OOOO______P___ jtwc_wp WP171989 22.5000 157.800 50 0 22.3000 157.700 3 45 990 0 9 150 150 0 22.3000 157.700 2 38 990 22.2000 157.900 TS 40 990 22.4442 157.808 2 50 8 351
1989221N10149 1989 75 WP MM NANCY 1989-08-12 21:00:00 TS 22.7743 157.718 main 2167 2120 PPPP______P___ WP171989 22.9200 157.680 52 0 22.7249 157.702 3 47 987 0 9 150 150 22.6974 157.729 2 43 987 22.6400 157.795 TS 45 987 22.8892 157.682 2 52 10 349
1989221N10149 1989 75 WP MM NANCY 1989-08-13 00:00:00 TS 23.3000 157.580 50 985 tokyo main 2120 2051 OOOO______O___ jtwc_wp WP171989 23.4000 157.500 55 0 23.3000 157.600 4 50 985 0 9 150 150 0 23.2000 157.700 3 48 985 23.2000 157.600 STS 50 985 23.4000 157.500 2 55 12 343
1989221N10149 1989 75 WP MM NANCY 1989-08-13 03:00:00 TS 23.9177 157.325 main 2051 1975 PPPP______P___ WP171989 23.9550 157.272 60 0 23.9776 157.345 4 52 982 0 9 162 162 23.8702 157.403 3 53 982 23.8275 157.330 STS 50 985 23.9584 157.273 2 60 14 338
1989221N10149 1989 75 WP MM NANCY 1989-08-13 06:00:00 TS 24.6000 157.000 55 980 tokyo main 1975 1908 OOOO______O___ jtwc_wp WP171989 24.6000 157.000 65 1 24.7000 157.000 4 55 980 9 50 50 9 175 175 0 24.6000 157.000 3 58 980 24.5000 157.000 STS 50 985 24.6000 157.000 3 65 15 337
1989221N10149 1989 75 WP MM NANCY 1989-08-13 09:00:00 TS 25.2784 156.698 main 1901 1834 PPPP______P___ WP171989 25.3271 156.752 67 1 25.3574 156.665 4 57 977 9 50 50 9 175 175 25.2498 156.664 3 58 980 25.1349 156.672 STS 52 982 25.3227 156.736 3 67 15 337
1989221N10149 1989 75 WP MM NANCY 1989-08-13 12:00:00 TS 25.9800 156.340 60 975 tokyo main 1819 1746 OOOO______O___ jtwc_wp WP171989 26.1000 156.400 70 1 26.0000 156.300 4 60 975 9 50 50 9 175 175 0 25.9000 156.300 3 58 980 25.8000 156.300 STS 55 980 26.1000 156.400 4 70 16 333
1989221N10149 1989 75 WP MM NANCY 1989-08-13 15:00:00 TS 26.6811 155.914 main 1739 1651 PPPP______P___ WP171989 26.8427 155.845 72 1 26.6120 155.951 4 62 972 9 60 60 9 175 175 26.5471 155.901 3 63 975 26.5196 155.901 STS 57 977 26.8843 155.974 4 71 17 330
1989221N10149 1989 75 WP MM NANCY 1989-08-13 18:00:00 TS 27.4356 155.387 65 970 tokyo main 1651 1544 OOOO______P___ jtwc_wp WP171989 27.6000 155.200 75 1 27.3000 155.500 5 65 970 9 70 70 9 175 175 0 27.3000 155.400 4 68 970 27.3000 155.400 STS 60 975 27.6780 155.436 4 72 19 328
1989221N10149 1989 75 WP MM NANCY 1989-08-13 21:00:00 TS 28.3037 154.792 main 1544 1437 PPPP______P___ WP171989 28.4133 154.680 75 1 28.1840 154.912 5 67 967 9 70 70 9 175 175 28.3142 154.790 4 68 967 28.1491 154.796 STS 60 975 28.4578 154.780 4 73 21 325
1989221N10149 1989 75 WP MM NANCY 1989-08-14 00:00:00 TS 29.1600 154.020 70 965 tokyo main 1423 1305 OOOO______O___ jtwc_wp WP171989 29.2000 154.000 75 1 29.1000 154.100 5 70 965 9 70 70 9 175 175 0 29.3000 154.000 4 68 965 29.0000 154.000 STS 60 975 29.2000 154.000 4 75 22 315
1989221N10149 1989 75 WP MM NANCY 1989-08-14 03:00:00 TS 29.8799 152.967 main 1299 1174 PPPP______P___ WP171989 29.8817 152.896 75 1 29.8966 152.973 5 70 965 9 70 70 9 175 175 29.9606 152.986 4 68 965 29.7886 152.931 STS 62 972 29.8720 153.049 4 75 23 306
1989221N10149 1989 75 WP MM NANCY 1989-08-14 06:00:00 TS 30.5201 151.838 70 965 tokyo main 1166 1058 OOOO______P___ jtwc_wp WP171989 30.5000 151.700 75 1 30.6000 151.800 5 70 965 9 70 70 9 175 175 0 30.5000 151.900 4 68 965 30.5000 151.800 T 65 970 30.5007 151.989 4 75 22 305
1989221N10149 1989 75 WP MM NANCY 1989-08-14 09:00:00 TS 31.1273 150.864 main 1058 950 PPPP______P___ WP171989 31.1064 150.738 75 1 31.2210 150.895 5 70 965 9 70 70 9 175 175 31.0916 150.926 4 68 965 31.1140 150.853 T 65 970 31.1033 150.908 4 75 20 307
1989221N10149 1989 75 WP MM NANCY 1989-08-14 12:00:00 TS 31.7200 149.980 70 965 tokyo main 950 852 OOOO______O___ jtwc_wp WP171989 31.7000 149.900 75 1 31.8000 150.100 5 70 965 9 70 70 9 175 175 0 31.7000 150.000 4 68 965 31.7000 150.000 T 65 970 31.7000 149.900 4 75 19 309
1989221N10149 1989 75 WP MM NANCY 1989-08-14 15:00:00 TS 32.3380 149.121 main 843 754 PPPP______P___ WP171989 32.2918 149.119 75 1 32.3997 149.269 5 70 965 9 70 70 9 175 175 32.3502 149.033 4 68 965 32.3496 149.162 T 67 967 32.2985 149.021 4 73 19 312
1989221N10149 1989 75 WP MM NANCY 1989-08-14 18:00:00 TS 32.9606 148.347 70 965 tokyo main 741 667 OOOO______P___ jtwc_wp WP171989 32.9000 148.400 75 1 33.0000 148.500 5 70 965 9 70 70 9 175 175 0 33.0000 148.200 4 68 965 33.0000 148.400 T 70 965 32.9028 148.237 4 72 17 315
1989221N10149 1989 75 WP MM NANCY 1989-08-14 21:00:00 TS 33.5623 147.666 main 663 587 PPPP______P___ WP171989 33.5276 147.647 72 1 33.5772 147.796 5 67 967 9 70 70 9 175 175 33.5838 147.638 4 68 965 33.5923 147.689 T 67 967 33.5308 147.559 4 71 16 320
1989221N10149 1989 75 WP MM NANCY 1989-08-15 00:00:00 TS 34.2000 147.100 65 970 tokyo main 587 523 OOOO______O___ jtwc_wp WP171989 34.2000 147.000 70 1 34.2000 147.200 5 65 970 9 70 70 9 175 175 0 34.2000 147.200 4 68 965 34.2000 147.100 T 65 970 34.2000 147.000 4 70 16 327
1989221N10149 1989 75 WP MM NANCY 1989-08-15 03:00:00 TS 34.9156 146.604 main 523 486 PPPP______P___ WP171989 34.9270 146.531 67 1 34.9198 146.675 5 65 970 9 70 70 9 175 175 34.9202 146.656 4 68 965 34.8771 146.632 T 67 967 34.9337 146.525 4 68 16 334
1989221N10149 1989 75 WP MM NANCY 1989-08-15 06:00:00 TS 35.6820 146.233 65 970 tokyo main 477 449 OOOO______P___ jtwc_wp WP171989 35.7000 146.200 65 1 35.7000 146.300 5 65 970 9 70 70 9 175 175 0 35.7000 146.200 4 68 965 35.6000 146.300 T 70 965 35.7100 146.167 4 67 16 342
1989221N10149 1989 75 WP MM NANCY 1989-08-15 09:00:00 TS 36.4561 145.980 main 444 396 PPPP______P___ WP171989 36.4923 145.926 65 1 36.4847 146.096 5 62 972 9 70 70 9 175 175 36.4847 145.924 4 68 965 36.3123 146.054 T 67 967 36.5064 145.901 4 66 16 348
1989221N10149 1989 75 WP MM NANCY 1989-08-15 12:00:00 TS 37.2600 145.820 60 975 tokyo main 392 347 OOOO______O___ jtwc_wp WP171989 37.3000 145.700 65 1 37.3000 146.000 4 60 975 9 70 70 9 175 175 0 37.3000 145.800 4 68 965 37.1000 145.900 T 65 970 37.3000 145.700 4 65 17 352
1989221N10149 1989 75 WP MM NANCY 1989-08-15 15:00:00 TS 38.1167 145.688 main 347 308 PPPP______P___ WP171989 38.1151 145.413 65 1 38.1648 145.921 4 57 977 9 60 60 9 162 162 38.1573 145.813 4 68 965 38.0573 145.814 T 60 975 38.0890 145.480 4 62 17 353
1989221N10149 1989 75 WP MM NANCY 1989-08-15 18:00:00 TS 38.9533 145.564 55 980 tokyo main 305 282 OOOO______P___ jtwc_wp WP171989 38.9000 145.200 65 1 39.0000 145.800 4 55 980 9 50 50 9 150 150 0 39.0000 145.800 4 68 965 39.0000 145.700 STS 55 980 38.8667 145.322 4 60 16 351
1989221N10149 1989 75 WP MM NANCY 1989-08-15 21:00:00 TS 39.7068 145.359 main 282 244 PPPP______P___ WP171989 39.6299 145.147 60 0 39.7452 145.509 4 55 980 9 50 50 9 150 150 39.8028 145.524 4 63 970 39.7453 145.386 STS 52 982 39.6111 145.228 4 57 15 348
1989221N10149 1989 75 WP MM NANCY 1989-08-16 00:00:00 TS 40.3800 145.180 55 980 tokyo main 236 193 OOOO______O___ jtwc_wp WP171989 40.3000 145.200 55 0 40.4000 145.200 4 55 980 9 50 50 9 150 150 0 40.5000 145.200 3 58 975 40.4000 145.100 STS 50 985 40.3000 145.200 2 55 13 351
1989221N10149 1989 75 WP MM NANCY 1989-08-16 03:00:00 TS 40.9748 145.084 main 186 157 PPPP______P___ WP171989 40.9300 145.285 50 0 40.9423 144.954 4 52 982 9 9 150 150 41.0223 144.953 3 53 980 41.0722 145.010 STS 45 987 40.9072 145.218 2 50 12 358
1989221N10149 1989 75 WP MM NANCY 1989-08-16 06:00:00 TS 41.5319 145.120 50 985 tokyo main 157 97 OOOO______P___ jtwc_wp WP171989 41.5000 145.400 45 0 41.5000 144.900 4 50 985 0 9 150 150 0 41.5000 144.900 3 48 985 41.7000 145.100 TS 40 990 41.4596 145.301 2 45 12 9
1989221N10149 1989 75 WP MM NANCY 1989-08-16 09:00:00 TS 42.1195 145.315 main 97 56 PPPP______P___ WP171989 42.0074 145.486 40 0 42.2651 145.158 4 47 987 0 9 150 150 42.0851 145.159 3 43 987 42.2575 145.340 TS 40 990 41.9823 145.434 2 40 12 18
1989221N10149 1989 75 WP MM NANCY 1989-08-16 12:00:00 TS 42.6947 145.616 45 990 tokyo main 56 26 OOOO______O___ jtwc_wp WP171989 42.5000 145.600 35 0 43.0000 145.600 3 45 990 0 9 150 150 0 42.7000 145.600 2 38 990 42.8000 145.700 TS 40 990 42.5000 145.600 2 35 12 23
1989221N10149 1989 75 WP MM NANCY 1989-08-16 15:00:00 TS 43.2286 145.940 main 26 26 PPPP______P___ WP171989 43.0425 145.785 35 0 43.4400 146.068 3 45 991 0 9 137 137 43.3078 146.064 2 33 992 43.3852 146.093 TS 37 992 43.0460 145.767 2 33 12 23
1989221N10149 1989 75 WP MM NANCY 1989-08-16 18:00:00 TS 43.7544 146.241 45 992 tokyo main 33 7 OOOO______P___ jtwc_wp WP171989 43.6000 146.000 35 0 43.9000 146.500 3 45 992 0 9 125 125 0 43.9000 146.500 1 29 995 44.0000 146.500 TS 35 995 43.5926 145.963 2 32 12 19
1989221N10149 1989 75 WP MM NANCY 1989-08-16 21:00:00 MX 44.3208 146.450 996 tokyo main 11 0 POP_______P___ WP171989 44.1500 146.200 32 -1 44.6000 146.800 6 996 0 0 0 44.4598 146.795 1 29 997 TS 44.1428 146.177 2 31 11 15
1989221N10149 1989 75 WP MM NANCY 1989-08-17 00:00:00 MX 44.8154 146.631 1000 tokyo main 38 38 OOO_______O___ jtwc_wp WP171989 44.7000 146.400 30 -1 45.0000 147.000 6 1000 0 0 0 45.0000 147.000 1 29 1000 44.7000 146.400 1 30 10 13
1989221N10149 1989 75 WP MM NANCY 1989-08-17 03:00:00 ET 45.2677 146.753 main 63 63 PP________P___ WP171989 45.2424 146.593 27 -1 45.2806 147.041 6 1000 0 0 1 45.2800 146.626 1 28 9 11
1989221N10149 1989 75 WP MM NANCY 1989-08-17 06:00:00 ET 45.7217 146.886 1000 tokyo main 86 86 OO________P___ jtwc_wp WP171989 45.8000 146.800 25 -1 45.5000 147.000 6 1000 0 0 0 45.8650 146.857 1 27 10 12
1989221N10149 1989 75 WP MM NANCY 1989-08-17 09:00:00 ET 46.2000 147.033 main 121 121 PP________P___ WP171989 46.4075 147.050 25 -1 45.7499 146.963 6 1002 0 0 46.4425 147.085 1 26 10 13
1989221N10149 1989 75 WP MM NANCY 1989-08-17 12:00:00 ET 46.6667 147.200 1004 tokyo main 164 164 OO________O___ jtwc_wp WP171989 47.0000 147.300 25 -1 46.0000 147.000 6 1004 0 0 0 47.0000 147.300 1 25 9 16
1989221N10149 1989 75 WP MM NANCY 1989-08-17 15:00:00 ET 47.0979 147.420 main 203 203 PP________P___ WP171989 47.5149 147.516 25 -1 46.2503 147.249 6 1004 0 0 47.5284 147.494 1 23 8 21
1989221N10149 1989 75 WP MM NANCY 1989-08-17 18:00:00 ET 47.4097 147.611 1004 tokyo main 233 233 OO________P___ jtwc_wp WP171989 48.0000 147.700 25 -1 46.5000 147.500 6 1004 0 0 0 48.0325 147.671 1 22 6 18
1989221N10149 1989 75 WP MM NANCY 1989-08-17 21:00:00 ET 47.6288 147.674 main 246 243 PP________P___ WP171989 48.4950 147.857 22 -1 46.7498 147.501 6 1004 0 0 48.5204 147.838 1 21 3 8
1989221N10149 1989 75 WP MM NANCY 1989-08-18 00:00:00 ET 47.6667 147.667 1004 tokyo main 243 220 OO________O___ jtwc_wp WP171989 49.0000 148.000 20 -1 47.0000 147.500 6 1004 0 0 0 49.0000 148.000 1 20 4 177
1989221N10149 1989 75 WP MM NANCY 1989-08-18 03:00:00 ET 47.2498 147.675 main 211 211 _P____________ WP171989 -1 47.2498 147.675 6 1004 0 0 1 3 126
1989221N10149 1989 75 WP MM NANCY 1989-08-18 06:00:00 ET 47.5000 148.000 1004 tokyo main 224 219 _O____________ -1 47.5000 148.000 6 1004 0 0 0 1 7 47
1989221N10149 1989 75 WP MM NANCY 1989-08-18 09:00:00 ET 47.7502 148.462 main 228 220 _P____________ -1 47.7502 148.462 6 1004 0 0 1 8 53
1989221N10149 1989 75 WP MM NANCY 1989-08-18 12:00:00 ET 48.0000 149.000 1004 tokyo main 229 226 _O____________ -1 48.0000 149.000 6 1004 0 0 0 9 55
1989221N10149 1989 75 WP MM NANCY 1989-08-18 15:00:00 ET 48.2502 149.512 main 249 247 _P____________ -1 48.2502 149.512 6 1004 0 0 8 53
1989221N10149 1989 75 WP MM NANCY 1989-08-18 18:00:00 ET 48.5000 150.000 1004 tokyo main 266 _O____________ -1 48.5000 150.000 6 1004 0 0 0 8 52

デジタル台風データ・検索

IBTrACS Databaseについて

本データベースは、米国NOAAが公開する1842年以降の世界の熱帯低気圧のベストトラックデータアーカイブInternational Best Track Archive for Climate Stewardship (IBTrACS)を、ウェブで閲覧しやすい形式に変換したものです。

最終更新日:2021-12-08